Time;durP1;ratioP1;P1;durP2;ratioP2;P2;SDS_P1;SDS_P2;PMS_P1;PMS_P2;Temp;Humidity;BMP_temperature;BMP_pressure;BME280_temperature;BME280_humidity;BME280_pressure;Samples;Min_cycle;Max_cycle;Signal;HPM_P1;HPM_P2
2021/08/31 00:01:39;;;;;;;8.30;6.63;;;16.80;99.90;;;;;;5015471;28;20503;-43
2021/08/31 00:04:05;;;;;;;8.17;5.53;;;16.80;99.90;;;;;;5016377;28;20507;-45
2021/08/31 00:06:32;;;;;;;7.30;6.00;;;16.80;99.90;;;;;;5016059;28;20452;-43
2021/08/31 00:08:59;;;;;;;9.43;6.80;;;16.70;99.90;;;;;;5015802;28;20477;-43
2021/08/31 00:11:26;;;;;;;10.13;5.70;;;16.70;99.90;;;;;;5015796;28;20566;-46
2021/08/31 00:13:54;;;;;;;8.70;6.07;;;16.70;99.90;;;;;;5015476;28;20445;-45
2021/08/31 00:16:21;;;;;;;8.37;6.10;;;16.70;99.90;;;;;;5015726;28;20595;-46
2021/08/31 00:18:47;;;;;;;8.50;6.20;;;16.60;99.90;;;;;;5015546;28;20488;-46
2021/08/31 00:21:14;;;;;;;10.30;7.10;;;16.60;99.90;;;;;;5015606;28;20761;-47
2021/08/31 00:23:41;;;;;;;6.90;5.70;;;16.60;99.90;;;;;;5015602;28;20444;-43
2021/08/31 00:26:08;;;;;;;7.43;5.97;;;16.70;99.90;;;;;;5015560;28;20492;-44
2021/08/31 00:28:35;;;;;;;11.10;6.17;;;16.70;99.90;;;;;;5015408;28;20484;-47
2021/08/31 00:31:03;;;;;;;11.23;6.10;;;16.70;99.90;;;;;;5015452;28;20441;-43
2021/08/31 00:33:29;;;;;;;9.10;5.63;;;16.70;99.90;;;;;;5016766;28;20946;-43
2021/08/31 00:35:57;;;;;;;9.30;6.70;;;16.70;99.90;;;;;;5018655;28;20934;-46
2021/08/31 00:38:24;;;;;;;9.37;6.80;;;16.70;99.90;;;;;;5019058;28;20459;-48
2021/08/31 00:40:50;;;;;;;13.40;7.80;;;16.70;99.90;;;;;;5019044;28;20515;-50
2021/08/31 00:43:18;;;;;;;10.63;5.90;;;16.70;99.90;;;;;;5018683;28;20972;-42
2021/08/31 00:45:48;;;;;;;13.53;7.10;;;16.70;99.90;;;;;;5019027;28;20532;-44
2021/08/31 00:48:17;;;;;;;7.77;6.20;;;16.70;99.90;;;;;;5019132;28;20452;-45
2021/08/31 00:50:45;;;;;;;6.60;5.80;;;16.70;99.90;;;;;;5019035;28;20783;-43
2021/08/31 00:53:11;;;;;;;7.13;6.27;;;16.70;99.90;;;;;;5018987;28;20511;-45
2021/08/31 00:55:38;;;;;;;9.70;6.37;;;16.70;99.90;;;;;;5019010;28;20449;-47
2021/08/31 00:58:07;;;;;;;7.37;6.47;;;16.60;99.90;;;;;;5018874;28;20518;-44
2021/08/31 01:00:33;;;;;;;7.83;5.77;;;16.60;99.90;;;;;;5019027;28;20516;-42
2021/08/31 01:03:00;;;;;;;11.13;6.77;;;16.60;99.90;;;;;;5018976;28;20515;-47
2021/08/31 01:05:31;;;;;;;13.50;6.50;;;16.60;99.90;;;;;;5019380;28;20449;-46
2021/08/31 01:07:58;;;;;;;9.10;6.10;;;16.60;99.90;;;;;;5018950;28;20441;-49
2021/08/31 01:10:25;;;;;;;8.23;5.40;;;16.60;99.90;;;;;;5019058;28;20859;-44
2021/08/31 01:12:53;;;;;;;6.20;5.57;;;16.60;99.90;;;;;;5018544;28;20905;-43
2021/08/31 01:15:20;;;;;;;13.77;6.70;;;16.60;99.90;;;;;;5019076;28;20445;-43
2021/08/31 01:17:47;;;;;;;10.43;6.03;;;16.60;99.90;;;;;;5019092;28;20492;-45
2021/08/31 01:20:14;;;;;;;8.43;6.57;;;16.60;99.90;;;;;;5019033;28;20433;-42
2021/08/31 01:22:42;;;;;;;8.07;6.30;;;16.60;99.90;;;;;;5018494;28;20461;-44
2021/08/31 01:25:10;;;;;;;8.97;5.93;;;16.60;99.90;;;;;;5018031;28;20461;-44
2021/08/31 01:27:37;;;;;;;10.80;6.90;;;16.60;99.90;;;;;;5018946;28;20449;-43
2021/08/31 01:30:05;;;;;;;11.37;6.33;;;16.50;99.90;;;;;;5018786;28;20530;-42
2021/08/31 01:32:31;;;;;;;9.50;5.80;;;16.60;99.90;;;;;;5018225;28;20761;-45
2021/08/31 01:34:58;;;;;;;11.13;6.37;;;16.60;99.90;;;;;;5018578;28;20461;-44
2021/08/31 01:37:25;;;;;;;8.43;6.37;;;16.50;99.90;;;;;;5018437;28;20503;-44
2021/08/31 01:39:51;;;;;;;9.63;7.70;;;16.60;99.90;;;;;;5018693;28;20445;-48
2021/08/31 01:42:20;;;;;;;10.90;7.60;;;16.50;99.90;;;;;;5018241;28;20441;-45
2021/08/31 01:44:46;;;;;;;8.30;5.83;;;16.60;99.90;;;;;;5017081;28;20456;-43
2021/08/31 01:47:13;;;;;;;10.80;5.93;;;16.50;99.90;;;;;;5017726;28;20448;-45
2021/08/31 01:49:40;;;;;;;10.37;5.90;;;16.50;99.90;;;;;;5017948;28;20865;-43
2021/08/31 01:52:07;;;;;;;9.47;6.37;;;16.50;99.90;;;;;;5018047;28;21012;-44
2021/08/31 01:54:33;;;;;;;9.70;6.60;;;16.50;99.90;;;;;;5017952;28;20502;-43
2021/08/31 01:57:00;;;;;;;9.53;6.20;;;16.50;99.90;;;;;;5017280;28;20428;-44
2021/08/31 01:59:28;;;;;;;9.90;6.80;;;16.50;99.90;;;;;;5017900;28;20445;-48
2021/08/31 02:01:55;;;;;;;12.10;6.60;;;16.50;99.90;;;;;;5017801;28;20453;-44
2021/08/31 02:04:21;;;;;;;10.80;6.33;;;16.50;99.90;;;;;;5017786;28;20445;-45
2021/08/31 02:06:48;;;;;;;12.17;8.30;;;16.50;99.90;;;;;;5018020;28;20453;-42
2021/08/31 02:09:16;;;;;;;12.90;7.73;;;16.40;99.90;;;;;;5017799;28;20918;-42
2021/08/31 02:11:42;;;;;;;6.60;5.13;;;16.40;99.90;;;;;;5017583;28;20517;-44
2021/08/31 02:14:09;;;;;;;9.23;6.33;;;16.40;99.90;;;;;;5017893;28;20515;-43
2021/08/31 02:16:39;;;;;;;8.17;6.70;;;16.30;99.90;;;;;;5016981;28;20507;-50
2021/08/31 02:19:06;;;;;;;10.53;7.00;;;16.30;99.90;;;;;;5017382;28;20953;-45
2021/08/31 02:21:32;;;;;;;9.30;7.13;;;16.30;99.90;;;;;;5017858;28;20452;-42
2021/08/31 02:23:59;;;;;;;7.97;6.80;;;16.30;99.90;;;;;;5017622;28;20437;-44
2021/08/31 02:26:30;;;;;;;10.27;7.27;;;16.30;99.90;;;;;;5017266;28;20468;-42
2021/08/31 02:28:56;;;;;;;8.40;6.40;;;16.40;99.90;;;;;;5017455;28;20459;-44
2021/08/31 02:31:23;;;;;;;11.60;7.60;;;16.40;99.90;;;;;;5017557;28;20489;-42
2021/08/31 02:33:51;;;;;;;12.03;7.03;;;16.40;99.90;;;;;;5017239;28;20847;-49
2021/08/31 02:36:18;;;;;;;12.70;7.23;;;16.30;99.90;;;;;;5016992;28;20522;-45
2021/08/31 02:38:44;;;;;;;9.40;7.30;;;16.20;99.90;;;;;;5017193;28;20441;-42
2021/08/31 02:41:11;;;;;;;10.70;6.93;;;16.20;99.90;;;;;;5016881;28;20445;-44
2021/08/31 02:43:38;;;;;;;10.83;8.00;;;16.20;99.90;;;;;;5017200;28;20535;-45
2021/08/31 02:46:05;;;;;;;10.13;7.83;;;16.20;99.90;;;;;;5017705;28;20475;-42
2021/08/31 02:48:31;;;;;;;8.37;5.33;;;16.20;99.90;;;;;;5017496;28;20452;-42
2021/08/31 02:51:00;;;;;;;10.03;7.97;;;16.20;99.90;;;;;;5016610;28;20973;-42
2021/08/31 02:53:26;;;;;;;11.43;7.50;;;16.20;99.90;;;;;;5017115;28;20453;-42
2021/08/31 02:55:53;;;;;;;10.50;7.60;;;16.20;99.90;;;;;;5016440;28;20476;-45
2021/08/31 02:58:20;;;;;;;12.00;7.93;;;16.20;99.90;;;;;;5017055;28;20504;-41
2021/08/31 03:00:53;;;;;;;12.50;7.37;;;16.20;99.90;;;;;;5016866;28;20437;-42
2021/08/31 03:03:20;;;;;;;11.33;6.73;;;16.20;99.90;;;;;;5017004;28;20528;-45
2021/08/31 03:05:47;;;;;;;16.63;7.27;;;16.20;99.90;;;;;;5016910;28;20448;-42
2021/08/31 03:08:15;;;;;;;11.93;7.27;;;16.20;99.90;;;;;;5017136;28;20879;-45
2021/08/31 03:10:42;;;;;;;8.60;6.77;;;16.20;99.90;;;;;;5016302;28;20511;-48
2021/08/31 03:13:08;;;;;;;11.70;8.50;;;16.20;99.90;;;;;;5016443;28;20449;-43
2021/08/31 03:15:35;;;;;;;9.00;7.50;;;16.20;99.90;;;;;;5016531;28;20527;-45
2021/08/31 03:18:02;;;;;;;12.80;7.67;;;16.20;99.90;;;;;;5016518;28;20453;-42
2021/08/31 03:20:29;;;;;;;8.70;7.07;;;16.20;99.90;;;;;;5017211;28;20808;-47
2021/08/31 03:22:56;;;;;;;9.40;6.80;;;16.20;99.90;;;;;;5016622;28;20514;-45
2021/08/31 03:25:24;;;;;;;8.60;6.70;;;16.20;99.90;;;;;;5016232;28;20523;-44
2021/08/31 03:27:51;;;;;;;10.33;7.67;;;16.20;99.90;;;;;;5016456;28;20486;-43
2021/08/31 03:30:19;;;;;;;9.67;7.57;;;16.20;99.90;;;;;;5016137;28;20480;-45
2021/08/31 03:32:45;;;;;;;9.03;7.27;;;16.20;99.90;;;;;;5016219;28;20989;-43
2021/08/31 03:35:13;;;;;;;9.10;6.77;;;16.20;99.90;;;;;;5016170;28;20444;-43
2021/08/31 03:37:39;;;;;;;12.43;7.53;;;16.20;99.90;;;;;;5016445;28;20460;-48
2021/08/31 03:40:07;;;;;;;11.23;7.87;;;16.20;99.90;;;;;;5015999;28;20441;-47
2021/08/31 03:42:35;;;;;;;9.57;8.57;;;16.20;99.90;;;;;;5017170;28;20445;-45
2021/08/31 03:45:02;;;;;;;9.87;6.17;;;16.20;99.90;;;;;;5016625;28;20437;-43
2021/08/31 03:47:28;;;;;;;12.13;7.10;;;16.20;99.90;;;;;;5016432;28;20849;-45
2021/08/31 03:49:55;;;;;;;10.37;6.83;;;16.20;99.90;;;;;;5015953;28;21028;-46
2021/08/31 03:52:22;;;;;;;10.30;8.07;;;16.20;99.90;;;;;;5016524;28;20890;-44
2021/08/31 03:54:49;;;;;;;8.90;6.87;;;16.20;99.90;;;;;;5016625;28;20468;-46
2021/08/31 03:57:15;;;;;;;9.70;7.00;;;16.20;99.90;;;;;;5016155;28;20523;-43
2021/08/31 03:59:43;;;;;;;13.33;8.60;;;16.20;99.90;;;;;;5016302;28;20457;-45
2021/08/31 04:02:10;;;;;;;11.20;7.73;;;16.20;99.90;;;;;;5015682;28;20535;-42
2021/08/31 04:04:37;;;;;;;11.77;7.77;;;16.20;99.90;;;;;;5016172;28;20453;-42
2021/08/31 04:07:04;;;;;;;10.10;6.93;;;16.20;99.90;;;;;;5016365;28;20830;-44
2021/08/31 04:09:30;;;;;;;8.40;7.20;;;16.20;99.90;;;;;;5022214;28;20445;-47
2021/08/31 04:11:57;;;;;;;11.40;6.93;;;16.20;99.90;;;;;;5022327;28;20488;-47
2021/08/31 04:14:24;;;;;;;7.50;6.60;;;16.10;99.90;;;;;;5022524;28;20547;-47
2021/08/31 04:16:52;;;;;;;8.60;6.30;;;16.20;99.90;;;;;;5021266;28;20456;-49
2021/08/31 04:19:19;;;;;;;10.53;7.60;;;16.20;99.90;;;;;;5021488;28;20840;-45
2021/08/31 04:21:45;;;;;;;18.53;7.20;;;16.20;99.90;;;;;;5021252;28;20491;-50
2021/08/31 04:24:12;;;;;;;11.67;7.10;;;16.20;99.90;;;;;;5021549;28;20510;-47
2021/08/31 04:26:39;;;;;;;11.20;7.60;;;16.20;99.90;;;;;;5021536;28;20449;-53
2021/08/31 04:29:05;;;;;;;9.07;7.07;;;16.20;99.90;;;;;;5021197;28;20461;-48
2021/08/31 04:31:32;;;;;;;9.77;7.60;;;16.20;99.90;;;;;;5021327;28;20476;-47
2021/08/31 04:34:00;;;;;;;9.23;7.20;;;16.20;99.90;;;;;;5020945;28;20473;-52
2021/08/31 04:36:26;;;;;;;7.83;6.60;;;16.20;99.90;;;;;;5021317;28;20603;-51
2021/08/31 04:38:53;;;;;;;8.10;5.90;;;16.20;99.90;;;;;;5021502;28;20453;-52
2021/08/31 04:41:21;;;;;;;9.20;7.20;;;16.20;99.90;;;;;;5020922;28;20833;-48
2021/08/31 04:43:47;;;;;;;7.40;6.37;;;16.20;99.90;;;;;;5021040;28;20922;-49
2021/08/31 04:46:14;;;;;;;8.70;7.40;;;16.20;99.90;;;;;;5020993;28;20448;-47
2021/08/31 04:48:41;;;;;;;8.27;7.07;;;16.10;99.90;;;;;;5021336;28;21049;-50
2021/08/31 04:51:08;;;;;;;11.33;7.20;;;16.10;99.90;;;;;;5021290;28;20484;-51
2021/08/31 04:53:35;;;;;;;9.33;7.27;;;16.10;99.90;;;;;;5021084;28;20510;-52
2021/08/31 04:56:02;;;;;;;9.50;7.27;;;16.10;99.90;;;;;;5021078;28;20886;-51
2021/08/31 04:58:28;;;;;;;12.43;7.13;;;16.10;99.90;;;;;;5020888;28;20449;-47
2021/08/31 05:00:55;;;;;;;10.10;6.47;;;16.10;99.90;;;;;;5021134;28;20774;-45
2021/08/31 05:03:22;;;;;;;13.80;7.77;;;16.10;99.90;;;;;;5021653;28;20535;-47
2021/08/31 05:05:48;;;;;;;9.20;7.07;;;16.10;99.90;;;;;;5021091;28;20460;-50
2021/08/31 05:08:17;;;;;;;8.10;6.70;;;16.10;99.90;;;;;;5020713;28;20767;-46
2021/08/31 05:10:44;;;;;;;7.67;6.87;;;16.10;99.90;;;;;;5020730;28;20476;-49
2021/08/31 05:13:11;;;;;;;7.00;6.30;;;16.10;99.90;;;;;;5020273;28;20453;-50
2021/08/31 05:15:38;;;;;;;10.17;6.60;;;16.10;99.90;;;;;;5019717;28;20821;-45
2021/08/31 05:18:05;;;;;;;10.33;6.67;;;16.10;99.90;;;;;;5020843;28;21246;-52
2021/08/31 05:20:32;;;;;;;9.23;6.67;;;16.10;99.90;;;;;;5017230;28;20507;-48
2021/08/31 05:23:01;;;;;;;9.73;7.40;;;16.10;99.90;;;;;;5017711;28;20519;-50
2021/08/31 05:25:29;;;;;;;8.70;6.20;;;16.10;99.90;;;;;;5017594;28;20449;-45
2021/08/31 05:27:57;;;;;;;8.63;6.60;;;16.00;99.90;;;;;;5017774;28;20841;-48
2021/08/31 05:30:23;;;;;;;8.07;7.00;;;16.00;99.90;;;;;;5017753;28;20911;-49
2021/08/31 05:32:50;;;;;;;8.90;6.87;;;16.00;99.90;;;;;;5017482;28;20484;-48
2021/08/31 05:35:17;;;;;;;9.50;7.17;;;15.90;99.90;;;;;;5018212;28;20643;-48
2021/08/31 05:37:43;;;;;;;9.07;6.80;;;15.90;99.90;;;;;;5018044;28;20456;-48
2021/08/31 05:40:12;;;;;;;7.67;6.50;;;15.90;99.90;;;;;;5017920;28;20449;-49
2021/08/31 05:42:40;;;;;;;9.37;7.03;;;15.90;99.90;;;;;;5017573;28;20441;-47
2021/08/31 05:45:07;;;;;;;9.70;6.43;;;15.90;99.90;;;;;;5017347;28;20923;-50
2021/08/31 05:47:34;;;;;;;10.17;7.37;;;15.90;99.90;;;;;;5017294;28;20449;-49
2021/08/31 05:50:01;;;;;;;11.50;8.40;;;15.90;99.90;;;;;;5021354;28;20566;-47
2021/08/31 05:52:27;;;;;;;9.97;6.50;;;15.90;99.90;;;;;;5037100;28;20483;-45
2021/08/31 05:54:54;;;;;;;9.67;7.80;;;16.00;99.90;;;;;;5037556;28;20448;-49
2021/08/31 05:57:21;;;;;;;7.33;6.23;;;16.00;99.90;;;;;;5037440;28;20802;-47
2021/08/31 05:59:49;;;;;;;12.50;7.30;;;16.00;99.90;;;;;;5037284;28;20460;-45
2021/08/31 06:02:17;;;;;;;8.67;6.03;;;16.00;99.90;;;;;;5036946;28;20763;-45
2021/08/31 06:04:44;;;;;;;10.00;7.80;;;16.00;99.90;;;;;;5037112;28;21052;-46
2021/08/31 06:07:12;;;;;;;9.13;7.47;;;16.10;99.90;;;;;;5037558;28;20521;-45
2021/08/31 06:09:40;;;;;;;7.20;6.50;;;16.10;99.90;;;;;;5037400;28;20502;-46
2021/08/31 06:12:09;;;;;;;10.53;6.30;;;16.10;99.90;;;;;;5039148;28;20480;-45
2021/08/31 06:14:36;;;;;;;12.50;8.47;;;16.20;99.90;;;;;;5037812;28;20451;-47
2021/08/31 06:17:05;;;;;;;8.10;6.40;;;16.20;99.90;;;;;;5037602;28;20447;-50
2021/08/31 06:19:32;;;;;;;12.93;6.63;;;16.10;99.90;;;;;;5035764;28;20494;-50
2021/08/31 06:21:59;;;;;;;13.03;7.83;;;16.10;99.90;;;;;;5034889;28;20444;-50
2021/08/31 06:24:26;;;;;;;7.97;6.20;;;16.10;99.90;;;;;;5035350;28;20506;-49
2021/08/31 06:26:53;;;;;;;9.03;7.10;;;16.10;99.90;;;;;;5034920;28;20464;-49
2021/08/31 06:29:19;;;;;;;11.60;7.87;;;16.20;99.90;;;;;;5035735;28;20820;-51
2021/08/31 06:31:46;;;;;;;9.70;7.00;;;16.20;99.90;;;;;;5035290;28;20480;-47
2021/08/31 06:34:14;;;;;;;13.73;7.10;;;16.30;99.90;;;;;;5035690;28;20479;-49
2021/08/31 06:36:41;;;;;;;9.80;7.33;;;16.30;99.90;;;;;;5036366;28;20452;-50
2021/08/31 06:39:10;;;;;;;11.07;7.50;;;16.30;99.90;;;;;;5035414;28;20456;-50
2021/08/31 06:41:37;;;;;;;11.23;7.70;;;16.30;99.90;;;;;;5026069;28;20453;-49
2021/08/31 06:44:04;;;;;;;11.60;7.67;;;16.20;99.90;;;;;;5021256;28;20451;-53
2021/08/31 06:46:30;;;;;;;10.50;7.57;;;16.20;99.90;;;;;;5025839;28;20536;-49
2021/08/31 06:48:57;;;;;;;9.23;8.30;;;16.20;99.90;;;;;;5023096;28;20440;-46
2021/08/31 06:51:25;;;;;;;13.90;7.80;;;16.20;99.90;;;;;;5024481;28;20535;-48
2021/08/31 06:53:52;;;;;;;9.53;8.10;;;16.20;99.90;;;;;;5025576;28;20445;-49
2021/08/31 06:56:20;;;;;;;9.20;6.93;;;16.10;99.90;;;;;;5034489;28;20532;-46
2021/08/31 06:58:47;;;;;;;10.57;9.03;;;16.10;99.90;;;;;;5034792;28;20530;-49
2021/08/31 07:01:14;;;;;;;14.30;9.13;;;16.10;99.90;;;;;;5034982;28;20436;-49
2021/08/31 07:03:41;;;;;;;16.93;7.90;;;16.10;99.90;;;;;;5021662;28;20507;-49
2021/08/31 07:06:08;;;;;;;10.93;7.80;;;16.20;99.90;;;;;;5022835;28;20448;-49
2021/08/31 07:08:36;;;;;;;10.83;7.60;;;16.20;99.90;;;;;;5025166;28;20436;-47
2021/08/31 07:11:03;;;;;;;10.67;9.57;;;16.30;99.90;;;;;;5024066;28;20531;-53
2021/08/31 07:13:29;;;;;;;11.23;6.97;;;16.30;99.90;;;;;;5023370;28;20440;-51
2021/08/31 07:15:56;;;;;;;10.50;7.60;;;16.40;99.90;;;;;;5025207;28;20436;-50
2021/08/31 07:18:22;;;;;;;15.50;6.67;;;16.40;99.90;;;;;;5027165;28;20440;-45
2021/08/31 07:20:49;;;;;;;12.17;7.93;;;16.50;99.90;;;;;;5023220;28;20452;-50
2021/08/31 07:23:16;;;;;;;8.90;5.63;;;16.60;99.90;;;;;;5025059;28;20437;-48
2021/08/31 07:25:46;;;;;;;9.47;7.40;;;16.60;99.90;;;;;;5023786;28;20453;-51
2021/08/31 07:28:13;;;;;;;14.10;8.60;;;16.70;99.90;;;;;;5025636;28;20472;-51
2021/08/31 07:30:40;;;;;;;13.43;6.83;;;16.80;99.90;;;;;;5025733;28;20504;-52
2021/08/31 07:33:07;;;;;;;9.73;7.50;;;16.90;99.90;;;;;;5023102;28;20537;-47
2021/08/31 07:35:34;;;;;;;9.70;6.73;;;17.00;99.90;;;;;;5025077;28;20441;-45
2021/08/31 07:38:01;;;;;;;15.50;9.60;;;17.10;99.90;;;;;;5024084;28;20495;-46
2021/08/31 07:40:28;;;;;;;20.30;14.23;;;17.20;99.90;;;;;;5025993;28;20914;-46
2021/08/31 07:42:56;;;;;;;10.30;7.23;;;17.20;99.90;;;;;;5024127;28;20448;-51
2021/08/31 07:45:23;;;;;;;11.70;7.50;;;17.30;99.90;;;;;;5023539;28;20503;-49
2021/08/31 07:47:50;;;;;;;7.77;6.63;;;17.30;99.90;;;;;;5022637;28;20444;-51
2021/08/31 07:50:17;;;;;;;12.53;7.70;;;17.40;99.90;;;;;;5024276;28;20480;-49
2021/08/31 07:52:46;;;;;;;9.37;6.73;;;17.60;99.90;;;;;;5026420;28;20481;-51
2021/08/31 07:55:13;;;;;;;9.17;6.67;;;17.70;99.90;;;;;;5024791;28;20909;-50
2021/08/31 07:57:40;;;;;;;13.63;6.93;;;18.00;99.90;;;;;;5020286;28;20441;-47
2021/08/31 08:00:16;;;;;;;10.57;6.50;;;18.10;99.90;;;;;;5023223;28;20476;-51
2021/08/31 08:02:43;;;;;;;7.50;5.63;;;18.30;99.90;;;;;;5052777;28;20478;-52
2021/08/31 08:05:10;;;;;;;9.53;6.03;;;18.70;99.90;;;;;;5042619;28;20433;-47
2021/08/31 08:07:38;;;;;;;8.63;6.00;;;19.50;99.90;;;;;;5040200;28;20432;-47
2021/08/31 08:10:06;;;;;;;6.90;5.13;;;20.90;99.90;;;;;;5039555;28;20955;-46
2021/08/31 08:12:33;;;;;;;6.33;5.10;;;22.60;99.90;;;;;;5041031;28;20483;-46
2021/08/31 08:15:00;;;;;;;9.53;5.53;;;24.50;99.90;;;;;;5033834;28;20455;-52
2021/08/31 08:17:28;;;;;;;5.50;4.40;;;25.70;99.90;;;;;;5032563;28;20465;-51
2021/08/31 08:19:57;;;;;;;5.87;5.07;;;26.60;99.90;;;;;;5038057;28;20505;-51
2021/08/31 08:22:23;;;;;;;5.70;5.13;;;26.90;99.90;;;;;;5033431;28;20491;-51
2021/08/31 08:24:50;;;;;;;7.73;5.63;;;26.40;99.90;;;;;;5039476;28;20445;-50
2021/08/31 08:27:17;;;;;;;5.63;5.07;;;26.10;99.90;;;;;;5035446;28;20429;-47
2021/08/31 08:29:44;;;;;;;5.93;5.33;;;26.20;99.90;;;;;;5031939;28;20466;-49
2021/08/31 08:32:12;;;;;;;9.50;5.20;;;25.80;99.90;;;;;;5034515;28;20472;-48
2021/08/31 08:34:41;;;;;;;7.77;5.90;;;25.30;99.90;;;;;;5034160;28;21032;-50
2021/08/31 08:37:08;;;;;;;7.87;6.37;;;24.70;99.90;;;;;;5031882;28;20445;-51
2021/08/31 08:39:35;;;;;;;6.63;5.70;;;23.90;99.90;;;;;;5034405;28;20968;-48
2021/08/31 08:42:05;;;;;;;8.47;6.07;;;23.10;99.90;;;;;;5036498;28;20437;-48
2021/08/31 08:44:33;;;;;;;8.60;7.00;;;22.50;99.90;;;;;;5029328;28;20453;-48
2021/08/31 08:47:01;;;;;;;7.00;6.10;;;22.10;99.90;;;;;;5036915;28;20451;-53
2021/08/31 08:49:27;;;;;;;8.13;5.17;;;21.80;99.90;;;;;;5042086;28;20441;-46
2021/08/31 08:51:58;;;;;;;10.00;6.20;;;21.60;99.90;;;;;;5036728;28;20499;-45
2021/08/31 08:54:25;;;;;;;7.17;5.50;;;22.00;99.90;;;;;;5038488;28;20448;-47
2021/08/31 08:56:53;;;;;;;6.07;5.47;;;22.40;99.90;;;;;;5042938;28;20437;-48
2021/08/31 08:59:19;;;;;;;6.27;5.67;;;23.30;99.90;;;;;;5041569;28;20514;-49
2021/08/31 09:01:48;;;;;;;7.30;6.13;;;23.70;99.90;;;;;;5038021;28;20441;-53
2021/08/31 09:04:17;;;;;;;11.90;5.43;;;23.80;99.90;;;;;;5033765;28;20925;-51
2021/08/31 15:37:08;;;;;;;9.60;5.87;;;20.50;99.90;;;;;;6107105;23;20423;-42
2021/08/31 15:39:35;;;;;;;5.80;3.77;;;20.50;99.90;;;;;;5013385;28;20783;-45
2021/08/31 15:42:02;;;;;;;5.33;3.33;;;20.60;99.90;;;;;;5014281;28;20445;-41
2021/08/31 15:44:30;;;;;;;6.20;4.80;;;20.70;99.90;;;;;;5014185;28;20951;-44
2021/08/31 15:46:57;;;;;;;5.30;3.80;;;20.70;99.90;;;;;;5014495;28;20540;-46
2021/08/31 15:49:24;;;;;;;6.53;3.80;;;20.80;99.90;;;;;;5014515;28;20596;-44
2021/08/31 15:51:51;;;;;;;7.40;4.50;;;20.80;99.90;;;;;;5006287;28;20542;-40
2021/08/31 15:54:18;;;;;;;9.57;5.00;;;20.80;99.90;;;;;;5014267;28;20460;-46
2021/08/31 15:56:45;;;;;;;4.57;3.57;;;20.90;99.90;;;;;;5014102;28;20479;-45
2021/08/31 15:59:12;;;;;;;5.87;3.50;;;20.90;99.90;;;;;;5013930;28;20923;-43
2021/08/31 16:01:39;;;;;;;5.77;4.17;;;20.90;99.90;;;;;;5017278;28;20452;-45
2021/08/31 16:04:05;;;;;;;5.63;4.13;;;21.00;99.90;;;;;;5018485;28;20441;-43
2021/08/31 16:06:32;;;;;;;6.00;3.73;;;21.00;99.90;;;;;;5016048;28;20453;-46
2021/08/31 16:08:59;;;;;;;5.20;4.00;;;21.10;99.90;;;;;;5016362;28;20449;-43
2021/08/31 16:11:27;;;;;;;6.40;3.77;;;21.00;99.90;;;;;;5015895;28;20926;-42
2021/08/31 16:13:54;;;;;;;6.87;4.00;;;21.10;99.90;;;;;;5015157;28;20485;-44
2021/08/31 16:16:21;;;;;;;4.57;3.47;;;21.10;99.90;;;;;;5015866;28;20453;-44
2021/08/31 16:18:48;;;;;;;5.33;3.50;;;21.10;99.90;;;;;;5017529;28;20449;-44
2021/08/31 16:21:15;;;;;;;5.60;3.80;;;21.00;99.90;;;;;;5015528;28;20453;-46
2021/08/31 16:23:43;;;;;;;8.83;3.97;;;20.90;99.90;;;;;;5014237;28;20445;-41
2021/08/31 16:26:11;;;;;;;15.17;5.30;;;20.90;99.90;;;;;;5013837;28;20532;-44
2021/08/31 16:28:40;;;;;;;6.93;4.13;;;20.80;99.90;;;;;;5014322;28;20480;-41
2021/08/31 16:31:08;;;;;;;6.47;4.97;;;20.80;99.90;;;;;;5015442;28;20519;-42
2021/08/31 16:33:35;;;;;;;8.30;4.30;;;20.70;99.90;;;;;;5015697;28;20488;-45
2021/08/31 16:36:03;;;;;;;6.47;4.60;;;20.70;99.90;;;;;;5014889;28;20456;-47
2021/08/31 16:38:30;;;;;;;6.13;5.00;;;20.60;99.90;;;;;;5014150;28;20476;-44
2021/08/31 16:40:57;;;;;;;6.00;4.60;;;20.60;99.90;;;;;;5015019;28;20559;-45
2021/08/31 16:43:24;;;;;;;8.03;4.77;;;20.60;99.90;;;;;;5013620;28;20445;-42
2021/08/31 16:45:52;;;;;;;8.20;4.60;;;20.50;99.90;;;;;;5014499;28;20457;-43
2021/08/31 16:48:19;;;;;;;5.30;3.83;;;20.40;99.90;;;;;;5014627;28;20483;-47
2021/08/31 16:50:45;;;;;;;9.90;4.10;;;20.30;99.90;;;;;;5014927;28;20460;-46
2021/08/31 16:53:12;;;;;;;5.73;4.40;;;20.30;99.90;;;;;;5014983;28;20477;-44
2021/08/31 16:55:41;;;;;;;7.27;3.80;;;20.20;99.90;;;;;;5015005;28;20449;-41
2021/08/31 16:58:08;;;;;;;6.67;4.60;;;20.10;99.90;;;;;;5014946;28;20459;-44
2021/08/31 17:00:35;;;;;;;5.07;3.77;;;20.10;99.90;;;;;;5015283;28;20445;-47
2021/08/31 17:03:03;;;;;;;6.10;4.27;;;20.10;99.90;;;;;;5014774;28;20461;-44
2021/08/31 17:05:31;;;;;;;7.67;4.27;;;20.10;99.90;;;;;;5014974;28;20453;-43
2021/08/31 17:07:58;;;;;;;5.63;4.00;;;20.00;99.90;;;;;;5014845;28;20523;-46
2021/08/31 17:10:24;;;;;;;8.53;6.43;;;19.90;99.90;;;;;;5014634;28;20460;-42
2021/08/31 17:12:51;;;;;;;5.80;3.83;;;19.90;99.90;;;;;;5014557;28;20481;-47
2021/08/31 17:15:18;;;;;;;6.07;4.50;;;19.80;99.90;;;;;;5016351;28;20519;-48
2021/08/31 17:17:45;;;;;;;5.60;4.33;;;19.70;99.90;;;;;;5018697;28;20477;-46
2021/08/31 17:20:13;;;;;;;7.10;5.03;;;19.70;99.90;;;;;;5017898;28;20448;-43
2021/08/31 17:22:41;;;;;;;9.50;5.00;;;19.70;99.90;;;;;;5018170;28;20898;-51
2021/08/31 17:25:09;;;;;;;7.93;4.30;;;19.60;99.90;;;;;;5018280;28;20506;-44
2021/08/31 17:27:37;;;;;;;6.80;4.17;;;19.50;99.90;;;;;;5018296;28;20465;-43
2021/08/31 17:30:06;;;;;;;6.27;4.80;;;19.50;99.90;;;;;;5018282;28;20453;-46
2021/08/31 17:32:33;;;;;;;6.37;4.30;;;19.40;99.90;;;;;;5017960;28;21037;-46
2021/08/31 17:35:00;;;;;;;7.27;4.43;;;19.40;99.90;;;;;;4998153;23;1187677;-41
2021/08/31 17:37:28;;;;;;;6.30;4.13;;;19.40;99.90;;;;;;5014940;28;20661;-42
2021/08/31 17:39:55;;;;;;;7.30;3.97;;;19.30;99.90;;;;;;5017991;28;20464;-41
2021/08/31 17:42:22;;;;;;;4.80;3.87;;;19.20;99.90;;;;;;5018279;28;20451;-48
2021/08/31 17:44:49;;;;;;;8.63;4.10;;;19.20;99.90;;;;;;5017641;28;20971;-45
2021/08/31 17:47:16;;;;;;;5.70;4.40;;;19.20;99.90;;;;;;5018165;28;20532;-43
2021/08/31 17:49:43;;;;;;;8.50;5.57;;;19.20;99.90;;;;;;5018221;28;20778;-42
2021/08/31 17:52:11;;;;;;;5.57;3.93;;;19.20;99.90;;;;;;5018152;28;20468;-41
2021/08/31 17:54:43;;;;;;;7.80;4.80;;;19.10;99.90;;;;;;5017719;28;20504;-44
2021/08/31 17:57:10;;;;;;;6.40;4.40;;;19.10;99.90;;;;;;5017909;28;20500;-46
2021/08/31 17:59:37;;;;;;;7.97;5.20;;;19.00;99.90;;;;;;5017767;28;20441;-48
2021/08/31 18:02:04;;;;;;;7.03;5.27;;;18.90;99.90;;;;;;5018131;28;20944;-41
2021/08/31 18:04:31;;;;;;;6.10;4.90;;;18.90;99.90;;;;;;5018235;28;20524;-40
2021/08/31 18:06:59;;;;;;;7.07;4.77;;;18.80;99.90;;;;;;5018273;28;20716;-41
2021/08/31 18:09:26;;;;;;;5.60;4.40;;;18.80;99.90;;;;;;5018483;28;20780;-47
2021/08/31 18:11:54;;;;;;;5.83;4.20;;;18.80;99.90;;;;;;5018427;28;20449;-42
2021/08/31 18:14:21;;;;;;;7.50;4.73;;;18.70;99.90;;;;;;5017757;28;20481;-47
2021/08/31 18:16:48;;;;;;;6.40;4.30;;;18.70;99.90;;;;;;5017733;28;20437;-43
2021/08/31 18:19:14;;;;;;;9.07;5.77;;;18.60;99.90;;;;;;5017873;28;20468;-45
2021/08/31 18:21:41;;;;;;;7.70;4.93;;;18.60;99.90;;;;;;5017689;28;20456;-50
2021/08/31 18:24:08;;;;;;;5.97;4.67;;;18.50;99.90;;;;;;5017365;28;20457;-50
2021/08/31 18:26:35;;;;;;;129.93;74.60;;;18.50;99.90;;;;;;5016489;28;20461;-44
2021/08/31 18:29:03;;;;;;;12.40;8.10;;;18.50;99.90;;;;;;5017552;28;20449;-44
2021/08/31 18:31:30;;;;;;;34.50;17.67;;;18.40;99.90;;;;;;5012750;28;20925;-43
2021/08/31 18:33:57;;;;;;;6.00;4.80;;;18.30;99.90;;;;;;5000820;28;20494;-42
2021/08/31 18:36:23;;;;;;;5.90;4.57;;;18.30;99.90;;;;;;5005054;28;20507;-46
2021/08/31 18:38:50;;;;;;;8.30;5.50;;;18.20;99.90;;;;;;5007400;28;20441;-42
2021/08/31 18:41:18;;;;;;;6.10;4.90;;;18.20;99.90;;;;;;5011620;28;20801;-45
2021/08/31 18:43:45;;;;;;;11.80;4.60;;;18.10;99.90;;;;;;5019019;28;20515;-45
2021/08/31 18:46:13;;;;;;;6.10;4.80;;;18.10;99.90;;;;;;5018472;28;20802;-44
2021/08/31 18:48:41;;;;;;;6.00;4.63;;;18.10;99.90;;;;;;5018020;28;20453;-46
2021/08/31 18:51:07;;;;;;;5.93;4.60;;;18.10;99.90;;;;;;4999150;28;20493;-44
2021/08/31 18:53:37;;;;;;;9.37;4.23;;;18.00;99.90;;;;;;5014144;28;20480;-41
2021/08/31 18:56:03;;;;;;;7.37;4.63;;;18.00;99.90;;;;;;5016528;28;20620;-43
2021/08/31 18:58:30;;;;;;;10.13;5.00;;;18.00;99.90;;;;;;5015151;28;20906;-42
2021/08/31 19:00:57;;;;;;;7.97;4.80;;;17.90;99.90;;;;;;5015162;28;20464;-40
2021/08/31 19:03:25;;;;;;;9.57;5.43;;;17.90;99.90;;;;;;5015265;28;20460;-41
2021/08/31 19:05:52;;;;;;;7.80;4.90;;;17.90;99.90;;;;;;5014846;28;20448;-41
2021/08/31 19:08:19;;;;;;;9.07;6.90;;;17.90;99.90;;;;;;5015316;28;20453;-42
2021/08/31 19:10:47;;;;;;;9.93;7.17;;;17.80;99.90;;;;;;5015027;28;20456;-42
2021/08/31 19:13:14;;;;;;;13.40;8.87;;;17.80;99.90;;;;;;5015144;28;20473;-40